Time;durP1;ratioP1;P1;durP2;ratioP2;P2;SDS_P1;SDS_P2;PMS_P1;PMS_P2;Temp;Humidity;BMP_temperature;BMP_pressure;BME280_temperature;BME280_humidity;BME280_pressure;Samples;Min_cycle;Max_cycle;Signal;HPM_P1;HPM_P2
2021/03/23 00:00:51;;;;;;;7.83;5.43;;;;;;;;;;2067781;28;20256;-57
2021/03/23 00:01:51;;;;;;;6.30;5.47;;;;;;;;;;2064010;28;20660;-58
2021/03/23 00:02:54;;;;;;;7.20;5.50;;;;;;;;;;2064985;28;20189;-55
2021/03/23 00:03:55;;;;;;;9.60;5.47;;;;;;;;;;2064354;28;20177;-54
2021/03/23 00:04:55;;;;;;;8.77;6.20;;;;;;;;;;2064924;28;20182;-56
2021/03/23 00:05:55;;;;;;;5.30;4.87;;;;;;;;;;2064868;28;20201;-56
2021/03/23 00:06:56;;;;;;;6.13;4.80;;;;;;;;;;2065098;28;20192;-57
2021/03/23 00:07:56;;;;;;;6.03;5.43;;;;;;;;;;2065016;28;20212;-57
2021/03/23 00:08:58;;;;;;;6.67;5.20;;;;;;;;;;2065349;28;20259;-57
2021/03/23 00:09:58;;;;;;;8.03;5.13;;;;;;;;;;2064496;28;20691;-57
2021/03/23 00:11:00;;;;;;;6.77;5.30;;;;;;;;;;2064991;28;20201;-57
2021/03/23 00:12:00;;;;;;;5.47;4.90;;;;;;;;;;2062351;28;20218;-56
2021/03/23 00:13:01;;;;;;;5.83;5.20;;;;;;;;;;2065313;28;20520;-55
2021/03/23 00:14:03;;;;;;;6.10;5.13;;;;;;;;;;2083950;22;20235;-53
2021/03/23 00:15:04;;;;;;;8.10;5.37;;;;;;;;;;2074148;28;20216;-56
2021/03/23 00:16:05;;;;;;;5.93;5.30;;;;;;;;;;2078975;28;20271;-56
2021/03/23 00:17:05;;;;;;;6.47;5.27;;;;;;;;;;2089745;28;20176;-53
2021/03/23 00:18:06;;;;;;;5.90;5.37;;;;;;;;;;2088605;28;20187;-56
2021/03/23 00:19:07;;;;;;;6.27;5.30;;;;;;;;;;2091516;28;20202;-55
2021/03/23 00:20:09;;;;;;;5.70;5.00;;;;;;;;;;2084129;28;20552;-53
2021/03/23 00:21:10;;;;;;;7.27;5.13;;;;;;;;;;2089225;28;20184;-50
2021/03/23 00:22:10;;;;;;;10.02;6.00;;;;;;;;;;2088355;28;20275;-53
2021/03/23 00:23:11;;;;;;;6.87;4.93;;;;;;;;;;2084686;28;20199;-57
2021/03/23 00:24:11;;;;;;;7.80;5.40;;;;;;;;;;2074087;28;20205;-53
2021/03/23 00:25:12;;;;;;;6.10;5.50;;;;;;;;;;2076012;28;20172;-49
2021/03/23 00:26:13;;;;;;;6.57;5.90;;;;;;;;;;2075360;28;20211;-54
2021/03/23 00:27:14;;;;;;;6.93;5.07;;;;;;;;;;2083234;28;20169;-54
2021/03/23 00:28:14;;;;;;;5.63;5.13;;;;;;;;;;2075909;28;20196;-54
2021/03/23 00:29:16;;;;;;;5.83;5.13;;;;;;;;;;2085962;28;20171;-53
2021/03/23 00:30:16;;;;;;;6.30;5.70;;;;;;;;;;2075384;28;20769;-55
2021/03/23 00:31:19;;;;;;;9.30;5.63;;;;;;;;;;2080107;28;20198;-48
2021/03/23 00:32:19;;;;;;;5.70;5.13;;;;;;;;;;2080553;28;20184;-56
2021/03/23 00:33:19;;;;;;;7.47;5.30;;;;;;;;;;2078278;28;20188;-56
2021/03/23 00:34:20;;;;;;;7.27;5.13;;;;;;;;;;2072605;28;20215;-53
2021/03/23 00:35:20;;;;;;;5.70;5.03;;;;;;;;;;2075225;28;20288;-51
2021/03/23 00:36:22;;;;;;;7.00;5.00;;;;;;;;;;2072631;28;20315;-54
2021/03/23 00:37:22;;;;;;;6.87;5.27;;;;;;;;;;2076143;28;20176;-53
2021/03/23 00:38:23;;;;;;;5.43;5.05;;;;;;;;;;2086053;28;20212;-52
2021/03/23 00:39:23;;;;;;;9.57;5.87;;;;;;;;;;2084782;28;20220;-55
2021/03/23 00:40:28;;;;;;;7.53;5.00;;;;;;;;;;2085661;28;20191;-56
2021/03/23 00:41:32;;;;;;;6.40;5.07;;;;;;;;;;2085195;28;20259;-51
2021/03/23 00:42:33;;;;;;;5.03;4.63;;;;;;;;;;2080941;28;20823;-53
2021/03/23 00:43:36;;;;;;;8.17;5.07;;;;;;;;;;2072757;28;20181;-53
2021/03/23 00:44:37;;;;;;;4.93;4.47;;;;;;;;;;2060689;28;20162;-52
2021/03/23 00:45:39;;;;;;;5.83;5.13;;;;;;;;;;2069098;28;20184;-54
2021/03/23 00:46:39;;;;;;;4.93;4.53;;;;;;;;;;2079109;28;20177;-59
2021/03/23 00:47:40;;;;;;;6.47;4.73;;;;;;;;;;2080931;28;20188;-55
2021/03/23 00:48:40;;;;;;;5.60;5.00;;;;;;;;;;2075503;28;20173;-55
2021/03/23 00:49:41;;;;;;;5.60;4.70;;;;;;;;;;2077623;28;20651;-52
2021/03/23 00:50:41;;;;;;;5.63;4.93;;;;;;;;;;2079084;28;20176;-54
2021/03/23 00:51:42;;;;;;;6.90;4.90;;;;;;;;;;2080630;28;20232;-56
2021/03/23 00:52:43;;;;;;;9.23;5.23;;;;;;;;;;2080077;28;20672;-54
2021/03/23 00:53:44;;;;;;;6.27;5.07;;;;;;;;;;2072332;28;20185;-51
2021/03/23 00:54:44;;;;;;;6.93;4.50;;;;;;;;;;2064208;28;20188;-52
2021/03/23 00:55:44;;;;;;;6.67;4.97;;;;;;;;;;2071353;28;20680;-51
2021/03/23 00:56:44;;;;;;;6.50;4.97;;;;;;;;;;2078627;28;20184;-55
2021/03/23 00:57:45;;;;;;;5.67;5.07;;;;;;;;;;2079720;28;20179;-55
2021/03/23 00:58:45;;;;;;;6.33;5.43;;;;;;;;;;2080152;28;20645;-54
2021/03/23 00:59:45;;;;;;;5.53;5.03;;;;;;;;;;2080744;28;20175;-53
2021/03/23 01:00:45;;;;;;;6.60;5.13;;;;;;;;;;2081853;28;20173;-51
2021/03/23 01:01:46;;;;;;;6.30;5.17;;;;;;;;;;2080798;28;20238;-54
2021/03/23 01:02:46;;;;;;;6.23;5.37;;;;;;;;;;2081618;28;20286;-57
2021/03/23 01:03:46;;;;;;;7.83;5.83;;;;;;;;;;2073821;28;20264;-57
2021/03/23 01:04:47;;;;;;;5.40;5.00;;;;;;;;;;2074841;28;20225;-56
2021/03/23 01:05:49;;;;;;;6.73;5.30;;;;;;;;;;2074890;28;20220;-57
2021/03/23 01:06:49;;;;;;;6.60;5.37;;;;;;;;;;2075905;28;20181;-54
2021/03/23 01:07:50;;;;;;;7.03;5.20;;;;;;;;;;2068173;28;20174;-52
2021/03/23 01:08:50;;;;;;;5.90;5.13;;;;;;;;;;2071275;28;20184;-50
2021/03/23 01:09:50;;;;;;;5.37;4.87;;;;;;;;;;2075611;28;20200;-54
2021/03/23 01:10:50;;;;;;;6.17;4.80;;;;;;;;;;2079402;28;20699;-52
2021/03/23 01:11:51;;;;;;;5.73;4.77;;;;;;;;;;2079923;28;20539;-57
2021/03/23 01:12:51;;;;;;;5.73;5.23;;;;;;;;;;2072543;28;20173;-53
2021/03/23 01:13:51;;;;;;;5.33;4.93;;;;;;;;;;2071705;28;20213;-55
2021/03/23 01:14:52;;;;;;;5.43;5.03;;;;;;;;;;2086753;28;20171;-56
2021/03/23 01:15:52;;;;;;;6.50;5.17;;;;;;;;;;2072784;28;20180;-58
2021/03/23 01:16:52;;;;;;;7.40;5.63;;;;;;;;;;2072320;28;20215;-51
2021/03/23 01:17:52;;;;;;;7.13;5.03;;;;;;;;;;2074416;28;20211;-51
2021/03/23 01:18:53;;;;;;;5.13;4.73;;;;;;;;;;2064255;28;20180;-54
2021/03/23 01:19:53;;;;;;;5.53;5.00;;;;;;;;;;2068380;28;20181;-54
2021/03/23 01:20:53;;;;;;;5.57;5.10;;;;;;;;;;2079638;28;20660;-56
2021/03/23 01:21:53;;;;;;;6.33;4.77;;;;;;;;;;2080710;28;20184;-52
2021/03/23 01:22:54;;;;;;;6.30;5.63;;;;;;;;;;2074593;28;20188;-54
2021/03/23 01:23:54;;;;;;;6.50;5.00;;;;;;;;;;2081810;28;20238;-57
2021/03/23 01:24:54;;;;;;;5.60;4.83;;;;;;;;;;2071540;28;20199;-52
2021/03/23 01:25:55;;;;;;;5.87;5.23;;;;;;;;;;2064396;28;20641;-52
2021/03/23 01:26:55;;;;;;;6.40;5.10;;;;;;;;;;2071468;28;20173;-53
2021/03/23 01:27:55;;;;;;;6.07;4.77;;;;;;;;;;2081590;28;20168;-54
2021/03/23 01:28:55;;;;;;;5.70;5.30;;;;;;;;;;2080474;28;20234;-53
2021/03/23 01:29:56;;;;;;;6.03;5.07;;;;;;;;;;2071914;28;20169;-54
2021/03/23 01:30:56;;;;;;;4.73;4.40;;;;;;;;;;2071872;28;20180;-54
2021/03/23 01:31:57;;;;;;;7.07;5.33;;;;;;;;;;2072091;28;20165;-56
2021/03/23 01:32:57;;;;;;;5.57;4.90;;;;;;;;;;2068422;28;20173;-55
2021/03/23 01:33:58;;;;;;;6.07;5.47;;;;;;;;;;2081091;28;20235;-54
2021/03/23 01:34:58;;;;;;;6.50;5.40;;;;;;;;;;2071831;28;20179;-54
2021/03/23 01:35:58;;;;;;;5.90;4.87;;;;;;;;;;2075752;28;20220;-57
2021/03/23 01:36:59;;;;;;;6.40;5.10;;;;;;;;;;2076235;28;20196;-58
2021/03/23 01:37:59;;;;;;;7.13;5.90;;;;;;;;;;2080363;28;20180;-56
2021/03/23 01:38:59;;;;;;;5.80;4.80;;;;;;;;;;2074219;28;20211;-56
2021/03/23 01:39:59;;;;;;;6.10;5.43;;;;;;;;;;2071398;28;20256;-56
2021/03/23 01:41:00;;;;;;;6.43;5.10;;;;;;;;;;2071586;28;20267;-52
2021/03/23 01:42:00;;;;;;;6.17;5.53;;;;;;;;;;2080119;28;20254;-55
2021/03/23 01:43:02;;;;;;;7.57;4.97;;;;;;;;;;2075454;28;20634;-52
2021/03/23 01:44:02;;;;;;;6.40;5.67;;;;;;;;;;2080504;28;20200;-54
2021/03/23 01:45:32;;;;;;;5.00;4.60;;;;;;;;;;2080567;28;20172;-55
2021/03/23 01:46:39;;;;;;;6.10;5.50;;;;;;;;;;2063687;28;20681;-52
2021/03/23 01:47:39;;;;;;;5.43;4.93;;;;;;;;;;2076615;28;20181;-58
2021/03/23 01:48:40;;;;;;;6.13;5.53;;;;;;;;;;2078530;28;20648;-57
2021/03/23 01:49:42;;;;;;;6.17;5.47;;;;;;;;;;2080203;28;20236;-54
2021/03/23 01:50:51;;;;;;;7.27;5.37;;;;;;;;;;2075100;28;20192;-54
2021/03/23 01:51:53;;;;;;;6.13;4.97;;;;;;;;;;2079483;28;20184;-54
2021/03/23 01:52:59;;;;;;;6.47;5.97;;;;;;;;;;2080848;28;20189;-54
2021/03/23 01:54:01;;;;;;;6.27;5.73;;;;;;;;;;2079766;28;20192;-53
2021/03/23 01:55:03;;;;;;;5.53;5.13;;;;;;;;;;2081407;28;20501;-52
2021/03/23 01:56:05;;;;;;;8.37;5.57;;;;;;;;;;2079871;28;20168;-52
2021/03/23 01:57:07;;;;;;;5.80;5.40;;;;;;;;;;2077631;28;20185;-52
2021/03/23 01:58:09;;;;;;;5.33;4.83;;;;;;;;;;2081098;28;20172;-53
2021/03/23 01:59:09;;;;;;;6.93;5.60;;;;;;;;;;2080344;28;20233;-53
2021/03/23 02:00:10;;;;;;;6.43;5.30;;;;;;;;;;2078146;28;20657;-48
2021/03/23 02:01:11;;;;;;;7.97;5.67;;;;;;;;;;2081251;28;20177;-53
2021/03/23 02:02:12;;;;;;;5.73;5.23;;;;;;;;;;2071531;28;20187;-52
2021/03/23 02:03:12;;;;;;;6.50;5.50;;;;;;;;;;2074810;28;20219;-57
2021/03/23 02:04:13;;;;;;;6.00;5.40;;;;;;;;;;2078093;28;20649;-54
2021/03/23 02:05:18;;;;;;;5.53;5.10;;;;;;;;;;2081205;28;20168;-53
2021/03/23 02:06:31;;;;;;;5.30;4.80;;;;;;;;;;2080481;28;20204;-54
2021/03/23 02:07:31;;;;;;;5.63;5.20;;;;;;;;;;2081424;28;20168;-51
2021/03/23 02:08:31;;;;;;;5.87;4.77;;;;;;;;;;2077325;28;20190;-49
2021/03/23 02:09:33;;;;;;;5.50;4.93;;;;;;;;;;2080466;28;20668;-52
2021/03/23 02:10:34;;;;;;;5.93;5.40;;;;;;;;;;2079455;28;20195;-55
2021/03/23 02:11:36;;;;;;;6.13;4.83;;;;;;;;;;2077434;28;20180;-53
2021/03/23 02:12:36;;;;;;;5.63;5.13;;;;;;;;;;2079177;28;20687;-54
2021/03/23 02:13:37;;;;;;;5.83;4.47;;;;;;;;;;2078441;28;20172;-53
2021/03/23 02:14:41;;;;;;;5.97;4.60;;;;;;;;;;2080418;28;20884;-52
2021/03/23 02:15:42;;;;;;;5.17;4.67;;;;;;;;;;2081292;28;20177;-52
2021/03/23 02:16:42;;;;;;;4.87;4.20;;;;;;;;;;2077420;28;20717;-53
2021/03/23 02:17:43;;;;;;;5.10;4.70;;;;;;;;;;2064243;28;20672;-52
2021/03/23 02:18:43;;;;;;;7.27;4.70;;;;;;;;;;2063504;28;20201;-53
2021/03/23 02:19:43;;;;;;;4.67;4.00;;;;;;;;;;2082521;28;20242;-57
2021/03/23 02:20:56;;;;;;;4.63;4.30;;;;;;;;;;2073000;28;20229;-57
2021/03/23 02:21:56;;;;;;;4.90;4.40;;;;;;;;;;2075512;28;20173;-53
2021/03/23 02:23:04;;;;;;;5.77;4.57;;;;;;;;;;2074962;28;20252;-54
2021/03/23 02:24:04;;;;;;;4.90;4.50;;;;;;;;;;2065204;28;20635;-55
2021/03/23 02:25:07;;;;;;;5.87;4.37;;;;;;;;;;2073895;28;20185;-52
2021/03/23 02:26:09;;;;;;;4.70;4.27;;;;;;;;;;2088215;28;20310;-52
2021/03/23 02:27:09;;;;;;;5.00;4.47;;;;;;;;;;2076211;28;20177;-56
2021/03/23 02:28:09;;;;;;;5.20;4.47;;;;;;;;;;2081177;28;20160;-52
2021/03/23 02:29:15;;;;;;;4.70;4.30;;;;;;;;;;2067616;28;20224;-54
2021/03/23 02:30:21;;;;;;;4.10;3.70;;;;;;;;;;2065858;28;20197;-55
2021/03/23 02:31:21;;;;;;;4.93;3.80;;;;;;;;;;2069031;28;20216;-54
2021/03/23 02:32:22;;;;;;;4.23;3.87;;;;;;;;;;2072303;28;20165;-53
2021/03/23 02:33:22;;;;;;;4.77;3.70;;;;;;;;;;2069136;28;20558;-52
2021/03/23 02:34:23;;;;;;;5.10;4.60;;;;;;;;;;2081376;28;20250;-56
2021/03/23 02:35:23;;;;;;;4.33;3.97;;;;;;;;;;2082576;28;20723;-50
2021/03/23 02:36:24;;;;;;;5.33;3.83;;;;;;;;;;2080196;28;20199;-54
2021/03/23 02:37:25;;;;;;;7.97;4.27;;;;;;;;;;2077386;28;20188;-55
2021/03/23 02:38:25;;;;;;;5.07;4.23;;;;;;;;;;2077666;28;20180;-52
2021/03/23 02:39:27;;;;;;;5.50;3.90;;;;;;;;;;2081121;28;20192;-53
2021/03/23 02:40:28;;;;;;;4.83;3.60;;;;;;;;;;2082520;28;20616;-52
2021/03/23 02:41:28;;;;;;;4.13;3.77;;;;;;;;;;2081506;28;20176;-51
2021/03/23 02:42:29;;;;;;;6.37;4.17;;;;;;;;;;2081903;28;20263;-54
2021/03/23 02:43:29;;;;;;;4.43;4.03;;;;;;;;;;2082028;28;20182;-55
2021/03/23 02:44:36;;;;;;;4.33;3.43;;;;;;;;;;2081727;28;20180;-54
2021/03/23 02:45:36;;;;;;;4.77;3.70;;;;;;;;;;2081538;28;20176;-53
2021/03/23 02:46:36;;;;;;;4.13;3.40;;;;;;;;;;2082351;28;20176;-50
2021/03/23 02:47:36;;;;;;;4.00;3.70;;;;;;;;;;2073038;28;20185;-52
2021/03/23 02:48:37;;;;;;;3.63;3.43;;;;;;;;;;2075460;28;20208;-54
2021/03/23 02:49:37;;;;;;;4.47;3.40;;;;;;;;;;2081989;28;20196;-51
2021/03/23 02:50:37;;;;;;;3.80;3.50;;;;;;;;;;2082323;28;20179;-54
2021/03/23 02:51:38;;;;;;;5.70;4.00;;;;;;;;;;2080457;28;20621;-53
2021/03/23 02:52:38;;;;;;;4.40;4.03;;;;;;;;;;2073389;28;20204;-52
2021/03/23 02:53:38;;;;;;;3.90;3.53;;;;;;;;;;2070987;28;20201;-53
2021/03/23 02:54:39;;;;;;;4.57;3.20;;;;;;;;;;2081149;28;20188;-57
2021/03/23 02:55:39;;;;;;;3.67;3.33;;;;;;;;;;2071568;28;20180;-54
2021/03/23 02:56:39;;;;;;;6.03;3.67;;;;;;;;;;2064682;28;20181;-59
2021/03/23 02:57:39;;;;;;;5.07;3.70;;;;;;;;;;2066254;28;20205;-54
2021/03/23 02:58:40;;;;;;;3.93;3.60;;;;;;;;;;2074468;28;20175;-52
2021/03/23 02:59:40;;;;;;;4.43;3.37;;;;;;;;;;2071542;28;20231;-49
2021/03/23 03:00:41;;;;;;;4.40;3.37;;;;;;;;;;2071814;28;20645;-51
2021/03/23 03:01:41;;;;;;;5.23;3.33;;;;;;;;;;2086160;28;20183;-51
2021/03/23 03:02:41;;;;;;;4.77;3.20;;;;;;;;;;2074732;28;20744;-51
2021/03/23 03:03:42;;;;;;;4.17;3.53;;;;;;;;;;2073682;28;20207;-52
2021/03/23 03:04:43;;;;;;;3.63;3.37;;;;;;;;;;2081325;28;20172;-56
2021/03/23 03:05:43;;;;;;;4.40;3.63;;;;;;;;;;2080539;28;20222;-52
2021/03/23 03:06:44;;;;;;;4.90;3.50;;;;;;;;;;2081179;28;20195;-51
2021/03/23 03:07:44;;;;;;;4.17;3.47;;;;;;;;;;2083098;28;20226;-53
2021/03/23 03:08:44;;;;;;;3.87;3.47;;;;;;;;;;2077931;28;20180;-52
2021/03/23 03:09:44;;;;;;;4.07;3.67;;;;;;;;;;2072277;28;20211;-55
2021/03/23 03:10:45;;;;;;;4.30;3.80;;;;;;;;;;2072485;28;20631;-54
2021/03/23 03:11:45;;;;;;;3.70;3.40;;;;;;;;;;2081820;28;20521;-55
2021/03/23 03:12:45;;;;;;;4.13;3.20;;;;;;;;;;2082217;28;20267;-52
2021/03/23 03:13:46;;;;;;;3.50;3.30;;;;;;;;;;2081232;28;20263;-55
2021/03/23 03:14:46;;;;;;;3.50;3.20;;;;;;;;;;2082039;28;20859;-57
2021/03/23 03:15:46;;;;;;;5.73;3.23;;;;;;;;;;2072467;28;20204;-54
2021/03/23 03:16:47;;;;;;;3.80;3.37;;;;;;;;;;2073144;28;20188;-52
2021/03/23 03:17:47;;;;;;;3.93;3.20;;;;;;;;;;2081021;28;20241;-55
2021/03/23 03:18:47;;;;;;;5.50;3.27;;;;;;;;;;2081226;28;20183;-56
2021/03/23 03:19:48;;;;;;;4.13;3.77;;;;;;;;;;2082902;28;20183;-57
2021/03/23 03:20:49;;;;;;;3.60;3.30;;;;;;;;;;2073060;28;20720;-52
2021/03/23 03:21:49;;;;;;;4.93;3.83;;;;;;;;;;2072094;28;20189;-54
2021/03/23 03:22:49;;;;;;;3.57;3.33;;;;;;;;;;2079623;28;20180;-57
2021/03/23 03:23:50;;;;;;;3.87;3.37;;;;;;;;;;2080288;28;20199;-56
2021/03/23 03:24:50;;;;;;;4.73;3.53;;;;;;;;;;2081392;28;20639;-51
2021/03/23 03:25:51;;;;;;;4.87;3.13;;;;;;;;;;2081281;28;20291;-52
2021/03/23 03:26:51;;;;;;;4.50;3.43;;;;;;;;;;2077972;28;20226;-52
2021/03/23 03:27:51;;;;;;;4.10;3.73;;;;;;;;;;2081450;28;20267;-51
2021/03/23 03:28:52;;;;;;;4.30;3.63;;;;;;;;;;2078127;28;20268;-55
2021/03/23 03:29:52;;;;;;;3.30;3.00;;;;;;;;;;2085811;28;20167;-54
2021/03/23 03:30:52;;;;;;;5.00;3.30;;;;;;;;;;2077245;28;20183;-54
2021/03/23 03:31:53;;;;;;;5.87;3.33;;;;;;;;;;2088433;28;20699;-56
2021/03/23 03:32:54;;;;;;;3.37;3.17;;;;;;;;;;2082183;28;20263;-53
2021/03/23 03:33:55;;;;;;;3.87;3.57;;;;;;;;;;2081999;28;20299;-54
2021/03/23 03:34:55;;;;;;;4.17;3.37;;;;;;;;;;2075575;28;20173;-54
2021/03/23 03:35:55;;;;;;;5.23;3.57;;;;;;;;;;2081959;28;20658;-51
2021/03/23 03:36:56;;;;;;;3.43;3.17;;;;;;;;;;2081465;28;20652;-52
2021/03/23 03:37:56;;;;;;;5.57;3.40;;;;;;;;;;2078808;28;20276;-57
2021/03/23 03:38:57;;;;;;;3.73;3.37;;;;;;;;;;2076725;28;20545;-58
2021/03/23 03:39:57;;;;;;;3.57;3.33;;;;;;;;;;2081345;28;20210;-58
2021/03/23 03:40:58;;;;;;;4.80;3.37;;;;;;;;;;2082100;28;20180;-52
2021/03/23 03:41:58;;;;;;;5.13;3.37;;;;;;;;;;2081268;28;20212;-51
2021/03/23 03:42:58;;;;;;;4.23;3.37;;;;;;;;;;2082302;28;20199;-51
2021/03/23 03:43:59;;;;;;;3.90;3.33;;;;;;;;;;2073365;28;20193;-55
2021/03/23 03:44:59;;;;;;;3.77;3.47;;;;;;;;;;2081199;28;20199;-56
2021/03/23 03:46:00;;;;;;;5.80;3.83;;;;;;;;;;2079775;28;20234;-51
2021/03/23 03:47:00;;;;;;;4.10;3.80;;;;;;;;;;2081745;28;20168;-52
2021/03/23 03:48:00;;;;;;;5.03;3.90;;;;;;;;;;2077837;28;20575;-51
2021/03/23 03:49:00;;;;;;;5.30;4.53;;;;;;;;;;2081857;28;20551;-52
2021/03/23 03:50:01;;;;;;;4.00;3.70;;;;;;;;;;2075750;28;20216;-51
2021/03/23 03:51:01;;;;;;;4.67;3.90;;;;;;;;;;2081721;28;20252;-58
2021/03/23 03:52:01;;;;;;;4.63;4.23;;;;;;;;;;2078502;28;20634;-54
2021/03/23 03:53:02;;;;;;;5.07;4.00;;;;;;;;;;2073532;28;20669;-53
2021/03/23 03:54:04;;;;;;;4.17;3.77;;;;;;;;;;2068167;28;20204;-55
2021/03/23 03:55:05;;;;;;;4.17;3.80;;;;;;;;;;2081744;28;20165;-54
2021/03/23 03:56:05;;;;;;;6.77;4.27;;;;;;;;;;2078079;28;20211;-55
2021/03/23 03:57:06;;;;;;;10.33;4.33;;;;;;;;;;2081680;28;20208;-54
2021/03/23 03:58:06;;;;;;;3.80;3.60;;;;;;;;;;2068771;28;20240;-54
2021/03/23 03:59:06;;;;;;;3.97;3.67;;;;;;;;;;2072477;28;20188;-53
2021/03/23 04:00:07;;;;;;;4.57;3.80;;;;;;;;;;2076847;28;20798;-54
2021/03/23 04:01:12;;;;;;;4.73;4.33;;;;;;;;;;2072994;28;20200;-56
2021/03/23 04:02:12;;;;;;;4.27;3.87;;;;;;;;;;2069164;28;20184;-52
2021/03/23 04:03:17;;;;;;;5.80;4.20;;;;;;;;;;2074701;28;20666;-52
2021/03/23 04:04:18;;;;;;;3.97;3.60;;;;;;;;;;2081071;28;20203;-51
2021/03/23 04:05:20;;;;;;;4.93;3.90;;;;;;;;;;2071712;28;20189;-58
2021/03/23 04:06:20;;;;;;;5.27;4.70;;;;;;;;;;2070269;28;20211;-54
2021/03/23 04:07:21;;;;;;;4.60;4.20;;;;;;;;;;2077280;28;20183;-55
2021/03/23 04:08:25;;;;;;;5.20;4.43;;;;;;;;;;2071955;28;20554;-54
2021/03/23 04:09:26;;;;;;;4.07;3.77;;;;;;;;;;2080985;28;20207;-52
2021/03/23 04:10:26;;;;;;;6.50;3.93;;;;;;;;;;2081878;28;20667;-52
2021/03/23 04:11:26;;;;;;;4.63;4.20;;;;;;;;;;2081193;28;20251;-56
2021/03/23 04:12:26;;;;;;;6.20;4.60;;;;;;;;;;2068588;28;20562;-56
2021/03/23 04:13:27;;;;;;;4.60;4.03;;;;;;;;;;2068966;28;20244;-58
2021/03/23 04:14:27;;;;;;;6.47;4.27;;;;;;;;;;2080726;28;20208;-54
2021/03/23 04:15:31;;;;;;;4.50;4.10;;;;;;;;;;2080941;28;20858;-55
2021/03/23 04:16:31;;;;;;;5.00;4.47;;;;;;;;;;2082135;28;20264;-56
2021/03/23 04:17:31;;;;;;;4.67;4.27;;;;;;;;;;2081060;28;20739;-57
2021/03/23 04:18:32;;;;;;;5.07;4.60;;;;;;;;;;2064319;28;20177;-54
2021/03/23 04:19:32;;;;;;;5.13;4.63;;;;;;;;;;2066535;28;20181;-52
2021/03/23 04:20:33;;;;;;;5.87;4.27;;;;;;;;;;2072390;28;20192;-52
2021/03/23 04:21:33;;;;;;;5.10;4.70;;;;;;;;;;2065842;28;20221;-56
2021/03/23 04:22:33;;;;;;;4.40;3.97;;;;;;;;;;2069069;28;20181;-53
2021/03/23 04:23:35;;;;;;;6.50;4.60;;;;;;;;;;2078571;28;20656;-53
2021/03/23 04:24:35;;;;;;;4.70;4.30;;;;;;;;;;2080540;28;20191;-52
2021/03/23 04:25:36;;;;;;;6.27;4.20;;;;;;;;;;2078927;28;20563;-54
2021/03/23 04:26:36;;;;;;;6.10;4.50;;;;;;;;;;2080233;28;20191;-52
2021/03/23 04:27:36;;;;;;;5.07;4.67;;;;;;;;;;2079229;28;20180;-54
2021/03/23 04:28:38;;;;;;;5.17;4.60;;;;;;;;;;2081604;28;20182;-52
2021/03/23 04:29:39;;;;;;;4.60;4.20;;;;;;;;;;2080495;28;20168;-54
2021/03/23 04:30:39;;;;;;;5.63;4.50;;;;;;;;;;2081665;28;20191;-52
2021/03/23 04:31:40;;;;;;;8.23;4.70;;;;;;;;;;2072073;28;20250;-53
2021/03/23 04:32:41;;;;;;;5.20;4.60;;;;;;;;;;2068524;28;20185;-57
2021/03/23 04:33:41;;;;;;;4.83;4.40;;;;;;;;;;2079577;28;20648;-56
2021/03/23 04:34:41;;;;;;;6.93;4.70;;;;;;;;;;2080294;28;20226;-53
2021/03/23 04:35:58;;;;;;;5.73;4.50;;;;;;;;;;2073112;28;20173;-52
2021/03/23 04:36:58;;;;;;;4.70;4.40;;;;;;;;;;2074929;28;20262;-54
2021/03/23 04:37:58;;;;;;;10.73;4.67;;;;;;;;;;2075150;28;20219;-58
2021/03/23 04:38:59;;;;;;;5.07;4.30;;;;;;;;;;2081203;28;20176;-56
2021/03/23 04:40:03;;;;;;;5.70;4.50;;;;;;;;;;2077299;28;20172;-52
2021/03/23 04:41:05;;;;;;;4.90;4.50;;;;;;;;;;2081824;28;20176;-54
2021/03/23 04:42:05;;;;;;;6.43;4.80;;;;;;;;;;2080191;28;20209;-53
2021/03/23 04:43:06;;;;;;;5.37;4.67;;;;;;;;;;2080164;28;20168;-53
2021/03/23 04:44:07;;;;;;;7.30;4.77;;;;;;;;;;2073794;28;20232;-56
2021/03/23 04:45:07;;;;;;;6.50;4.73;;;;;;;;;;2071751;28;20166;-54
2021/03/23 04:46:08;;;;;;;5.80;4.80;;;;;;;;;;2072605;28;20243;-56
2021/03/23 04:47:09;;;;;;;4.83;4.43;;;;;;;;;;2080507;28;20172;-56
2021/03/23 04:48:09;;;;;;;5.53;5.03;;;;;;;;;;2081278;28;20481;-54
2021/03/23 04:49:09;;;;;;;5.87;5.20;;;;;;;;;;2080492;28;20164;-54
2021/03/23 04:50:10;;;;;;;5.20;4.80;;;;;;;;;;2082133;28;20188;-55
2021/03/23 04:51:11;;;;;;;6.50;4.97;;;;;;;;;;2080957;28;20177;-56
2021/03/23 04:52:11;;;;;;;5.57;5.03;;;;;;;;;;2080775;28;20193;-56
2021/03/23 04:53:40;;;;;;;6.30;4.70;;;;;;;;;;2079681;28;20181;-55
2021/03/23 04:54:41;;;;;;;5.53;4.73;;;;;;;;;;2059061;28;20528;-54
2021/03/23 04:55:41;;;;;;;5.93;5.03;;;;;;;;;;2071569;28;20212;-56
2021/03/23 04:56:41;;;;;;;6.07;4.90;;;;;;;;;;2071363;28;20177;-56
2021/03/23 04:57:42;;;;;;;5.40;4.90;;;;;;;;;;2079292;28;20599;-54
2021/03/23 04:58:42;;;;;;;6.23;5.33;;;;;;;;;;2080731;28;20235;-55
2021/03/23 04:59:42;;;;;;;5.53;4.90;;;;;;;;;;2080659;28;20311;-54
2021/03/23 05:00:43;;;;;;;5.00;4.50;;;;;;;;;;2080880;28;20172;-54
2021/03/23 05:01:43;;;;;;;7.47;5.10;;;;;;;;;;2075747;28;20660;-57
2021/03/23 05:02:44;;;;;;;5.37;4.97;;;;;;;;;;2079321;28;20184;-53
2021/03/23 05:03:44;;;;;;;5.33;4.87;;;;;;;;;;2077997;28;20183;-55
2021/03/23 05:04:44;;;;;;;5.67;5.17;;;;;;;;;;2079469;28;20185;-56
2021/03/23 05:05:44;;;;;;;4.80;4.40;;;;;;;;;;2079867;28;20235;-56
2021/03/23 05:06:45;;;;;;;7.33;4.97;;;;;;;;;;2080787;28;20185;-54
2021/03/23 05:07:45;;;;;;;5.17;4.73;;;;;;;;;;2080604;28;20202;-56
2021/03/23 05:08:46;;;;;;;4.77;4.20;;;;;;;;;;2080748;28;20267;-55
2021/03/23 05:09:46;;;;;;;5.97;4.80;;;;;;;;;;2080483;28;20229;-55
2021/03/23 05:10:47;;;;;;;5.67;5.20;;;;;;;;;;2079281;28;20624;-55
2021/03/23 05:11:47;;;;;;;10.07;5.90;;;;;;;;;;2080070;28;20185;-56
2021/03/23 05:12:47;;;;;;;5.57;5.03;;;;;;;;;;2081440;28;20184;-53
2021/03/23 05:13:48;;;;;;;7.70;5.27;;;;;;;;;;2080169;28;20207;-53
2021/03/23 05:14:48;;;;;;;5.60;5.10;;;;;;;;;;2080519;28;20168;-57
2021/03/23 05:15:48;;;;;;;5.93;5.43;;;;;;;;;;2079511;28;20180;-58
2021/03/23 05:16:48;;;;;;;5.67;5.17;;;;;;;;;;2080482;28;20183;-55
2021/03/23 05:17:49;;;;;;;5.67;5.17;;;;;;;;;;2077164;28;20191;-52
2021/03/23 05:18:49;;;;;;;5.77;5.17;;;;;;;;;;2062736;28;20177;-54
2021/03/23 05:19:50;;;;;;;6.13;5.53;;;;;;;;;;2071155;28;20175;-52
2021/03/23 05:20:50;;;;;;;5.97;5.27;;;;;;;;;;2072204;28;20185;-53
2021/03/23 05:21:50;;;;;;;6.17;5.50;;;;;;;;;;2079770;28;20170;-55
2021/03/23 05:22:51;;;;;;;5.80;5.30;;;;;;;;;;2072769;28;20671;-56
2021/03/23 05:23:54;;;;;;;6.17;5.57;;;;;;;;;;2072658;28;20205;-53
2021/03/23 05:24:54;;;;;;;7.60;5.00;;;;;;;;;;2080627;28;20210;-52
2021/03/23 05:25:55;;;;;;;6.30;5.70;;;;;;;;;;2063763;28;20209;-54
2021/03/23 05:26:55;;;;;;;6.80;5.97;;;;;;;;;;2063926;28;20212;-58
2021/03/23 05:27:55;;;;;;;8.37;5.33;;;;;;;;;;2080559;28;20179;-56
2021/03/23 05:28:55;;;;;;;6.70;6.10;;;;;;;;;;2071973;28;20227;-54
2021/03/23 05:29:56;;;;;;;8.33;5.87;;;;;;;;;;2071789;28;20165;-55
2021/03/23 05:30:57;;;;;;;6.27;5.77;;;;;;;;;;2072260;28;20677;-56
2021/03/23 05:31:57;;;;;;;6.67;5.73;;;;;;;;;;2071648;28;20200;-56
2021/03/23 05:32:57;;;;;;;8.13;5.50;;;;;;;;;;2070724;28;20176;-55
2021/03/23 05:33:58;;;;;;;6.37;5.77;;;;;;;;;;2072432;28;20205;-56
2021/03/23 05:34:58;;;;;;;7.50;5.80;;;;;;;;;;2071796;28;20210;-51
2021/03/23 05:35:58;;;;;;;7.03;6.03;;;;;;;;;;2065658;28;20187;-54
2021/03/23 05:36:59;;;;;;;6.07;5.50;;;;;;;;;;2064906;28;20225;-56
2021/03/23 05:37:59;;;;;;;7.20;5.70;;;;;;;;;;2075782;28;20522;-54
2021/03/23 05:38:59;;;;;;;6.80;6.03;;;;;;;;;;2080898;28;20211;-55
2021/03/23 05:40:00;;;;;;;5.87;5.37;;;;;;;;;;2078489;28;20183;-56
2021/03/23 05:41:03;;;;;;;6.40;5.80;;;;;;;;;;2076775;28;20184;-52
2021/03/23 05:42:09;;;;;;;6.10;5.50;;;;;;;;;;2080063;28;20266;-53
2021/03/23 05:43:30;;;;;;;6.20;5.60;;;;;;;;;;2080239;28;20211;-55
2021/03/23 05:44:49;;;;;;;6.00;5.50;;;;;;;;;;2081054;28;20674;-58
2021/03/23 05:45:52;;;;;;;6.43;5.67;;;;;;;;;;2077476;28;20184;-55
2021/03/23 05:46:53;;;;;;;7.87;5.97;;;;;;;;;;2079663;28;20187;-53
2021/03/23 05:48:14;;;;;;;8.47;6.23;;;;;;;;;;2076142;28;20188;-57
2021/03/23 05:49:26;;;;;;;10.53;6.20;;;;;;;;;;2075096;28;20192;-54
2021/03/23 05:50:31;;;;;;;7.20;6.27;;;;;;;;;;2076764;28;20255;-58
2021/03/23 05:51:43;;;;;;;8.00;6.10;;;;;;;;;;2080268;28;20247;-55
2021/03/23 05:52:45;;;;;;;7.20;5.70;;;;;;;;;;2080267;28;20178;-58
2021/03/23 05:53:49;;;;;;;6.57;6.00;;;;;;;;;;2087245;28;20179;-55
2021/03/23 05:54:55;;;;;;;6.17;5.67;;;;;;;;;;2089343;28;20176;-52
2021/03/23 05:55:57;;;;;;;7.27;6.07;;;;;;;;;;2081667;28;20184;-57
2021/03/23 05:56:59;;;;;;;7.73;6.70;;;;;;;;;;2080703;28;20179;-53
2021/03/23 05:58:00;;;;;;;7.90;6.33;;;;;;;;;;2081703;28;20600;-54
2021/03/23 05:59:12;;;;;;;7.50;6.50;;;;;;;;;;2084548;28;20187;-54
2021/03/23 06:00:21;;;;;;;7.67;5.97;;;;;;;;;;2079320;28;20692;-54
2021/03/23 06:01:27;;;;;;;7.17;6.23;;;;;;;;;;2082958;28;20184;-51
2021/03/23 06:02:36;;;;;;;7.30;6.60;;;;;;;;;;2082015;28;20709;-57
2021/03/23 06:03:41;;;;;;;6.90;6.30;;;;;;;;;;2073469;28;20181;-53
2021/03/23 06:04:48;;;;;;;9.60;6.70;;;;;;;;;;2079017;28;20176;-50
2021/03/23 06:05:53;;;;;;;6.93;6.43;;;;;;;;;;2083785;28;20271;-55
2021/03/23 06:07:02;;;;;;;8.17;7.17;;;;;;;;;;2083463;28;20659;-52
2021/03/23 06:08:05;;;;;;;7.90;6.37;;;;;;;;;;2086070;28;20238;-55
2021/03/23 06:09:09;;;;;;;7.70;6.60;;;;;;;;;;2082043;28;20629;-57